createdAt,value
2023-01-04T00:01:25.396Z,6.50
2023-01-04T00:03:52.503Z,6.43
2023-01-04T00:06:19.849Z,6.53
2023-01-04T00:08:46.596Z,6.53
2023-01-04T00:11:21.260Z,6.93
2023-01-04T00:13:50.246Z,7.67
2023-01-04T00:16:22.529Z,7.20
2023-01-04T00:18:50.038Z,6.83
2023-01-04T00:21:20.282Z,7.50
2023-01-04T00:23:48.777Z,6.90
2023-01-04T00:26:19.245Z,6.80
2023-01-04T00:28:53.698Z,7.70
2023-01-04T00:31:22.231Z,6.97
2023-01-04T00:33:48.926Z,7.10
2023-01-04T00:36:15.921Z,6.80
2023-01-04T00:38:42.699Z,7.10
2023-01-04T00:41:18.880Z,7.10
2023-01-04T00:43:54.863Z,6.47
2023-01-04T00:46:21.513Z,7.93
2023-01-04T00:48:49.133Z,7.97
2023-01-04T00:51:15.820Z,8.83
2023-01-04T00:53:42.432Z,7.90
2023-01-04T00:56:09.025Z,7.97
2023-01-04T00:58:35.703Z,9.10
2023-01-04T01:01:06.746Z,9.07
2023-01-04T01:03:38.450Z,8.10
2023-01-04T01:06:07.973Z,7.60
2023-01-04T01:08:34.743Z,7.93
2023-01-04T01:11:06.969Z,9.47
2023-01-04T01:13:34.187Z,8.17
2023-01-04T01:16:08.369Z,9.40
2023-01-04T01:18:35.647Z,9.30
2023-01-04T01:21:10.068Z,8.53
2023-01-04T01:23:36.932Z,8.23
2023-01-04T01:26:05.463Z,7.47
2023-01-04T01:28:33.623Z,8.23
2023-01-04T01:31:05.025Z,7.93
2023-01-04T01:33:42.309Z,8.00
2023-01-04T01:36:09.964Z,7.87
2023-01-04T01:38:37.152Z,8.07
2023-01-04T01:41:04.654Z,7.80
2023-01-04T01:43:46.155Z,7.40
2023-01-04T01:46:13.229Z,8.97
2023-01-04T01:48:40.139Z,8.00
2023-01-04T01:51:06.863Z,8.13
2023-01-04T01:53:39.749Z,7.60
2023-01-04T01:56:08.730Z,7.80
2023-01-04T01:58:38.325Z,11.17
2023-01-04T02:01:05.242Z,8.93
2023-01-04T02:03:42.912Z,7.97
2023-01-04T02:06:12.592Z,9.17
2023-01-04T02:08:40.753Z,8.90
2023-01-04T02:11:07.369Z,9.77
2023-01-04T02:13:54.492Z,8.43
2023-01-04T02:16:40.973Z,9.37
2023-01-04T02:19:22.391Z,8.80
2023-01-04T02:21:58.266Z,7.80
2023-01-04T02:24:40.877Z,9.90
2023-01-04T02:27:20.588Z,10.67
2023-01-04T02:30:01.222Z,10.33
2023-01-04T02:32:33.274Z,11.67
2023-01-04T02:35:02.890Z,11.13
2023-01-04T02:37:44.199Z,9.63
2023-01-04T02:40:21.404Z,12.13
2023-01-04T02:43:48.766Z,9.63
2023-01-04T02:46:26.107Z,9.23
2023-01-04T02:49:11.263Z,9.20
2023-01-04T02:51:38.920Z,8.63
2023-01-04T02:54:11.209Z,8.03
2023-01-04T02:57:05.259Z,8.90
2023-01-04T02:59:43.131Z,8.87
2023-01-04T03:03:01.856Z,8.97
2023-01-04T03:06:06.612Z,8.80
2023-01-04T03:08:56.901Z,10.30
2023-01-04T03:11:43.170Z,12.53
2023-01-04T03:14:31.895Z,11.80
2023-01-04T03:17:02.347Z,11.53
2023-01-04T03:19:49.447Z,10.77
2023-01-04T03:22:36.976Z,10.47
2023-01-04T03:25:23.748Z,10.53
2023-01-04T03:28:10.468Z,10.83
2023-01-04T03:31:02.017Z,11.47
2023-01-04T03:33:47.375Z,9.77
2023-01-04T03:36:19.413Z,9.10
2023-01-04T03:39:16.404Z,8.90
2023-01-04T03:42:14.798Z,8.67
2023-01-04T03:45:18.511Z,9.03
2023-01-04T03:48:21.273Z,9.60
2023-01-04T03:50:52.297Z,8.73
2023-01-04T03:53:19.550Z,10.03
2023-01-04T03:55:46.914Z,8.70
2023-01-04T03:58:13.742Z,8.43
2023-01-04T04:00:40.450Z,9.83
2023-01-04T04:03:07.879Z,8.93
2023-01-04T04:05:56.764Z,8.67
2023-01-04T04:08:29.444Z,10.20
2023-01-04T04:11:21.044Z,10.27
2023-01-04T04:13:48.685Z,10.43
2023-01-04T04:16:15.799Z,9.53
2023-01-04T04:18:42.782Z,11.90
2023-01-04T04:21:09.357Z,10.60
2023-01-04T04:23:35.982Z,11.43
2023-01-04T04:26:02.547Z,10.90
2023-01-04T04:28:29.175Z,11.17
2023-01-04T04:30:55.795Z,10.13
2023-01-04T04:33:22.391Z,10.60
2023-01-04T04:35:53.573Z,10.57
2023-01-04T04:38:20.453Z,9.53
2023-01-04T04:41:06.391Z,9.50
2023-01-04T04:43:34.288Z,9.90
2023-01-04T04:46:01.254Z,9.53
2023-01-04T04:48:27.935Z,9.47
2023-01-04T04:50:54.548Z,9.93
2023-01-04T04:53:21.199Z,9.87
2023-01-04T04:55:51.078Z,9.00
2023-01-04T04:58:18.115Z,9.23
2023-01-04T05:00:44.721Z,9.10
2023-01-04T05:03:11.393Z,9.27
2023-01-04T05:05:38.055Z,10.43
2023-01-04T05:08:04.910Z,8.93
2023-01-04T05:10:31.540Z,9.13
2023-01-04T05:13:00.767Z,8.97
2023-01-04T05:15:29.631Z,8.60
2023-01-04T05:17:56.210Z,8.30
2023-01-04T05:20:22.877Z,8.57
2023-01-04T05:22:49.519Z,9.50
2023-01-04T05:25:16.440Z,10.87
2023-01-04T05:27:43.275Z,8.97
2023-01-04T05:30:32.174Z,7.67
2023-01-04T05:32:59.033Z,7.47
2023-01-04T05:35:25.725Z,7.43
2023-01-04T05:37:52.572Z,7.17
2023-01-04T05:40:19.313Z,7.13
2023-01-04T05:42:45.908Z,7.00
2023-01-04T05:45:13.849Z,6.80
2023-01-04T05:47:40.722Z,6.83
2023-01-04T05:50:08.468Z,6.37
2023-01-04T05:52:35.221Z,6.17
2023-01-04T05:55:02.208Z,7.50
2023-01-04T05:57:28.877Z,6.40
2023-01-04T05:59:55.440Z,6.37
2023-01-04T06:02:24.716Z,5.90
2023-01-04T06:04:58.129Z,6.63
2023-01-04T06:07:25.251Z,6.40
2023-01-04T06:09:51.824Z,6.37
2023-01-04T06:12:18.426Z,7.87
2023-01-04T06:14:44.980Z,6.33
2023-01-04T06:17:11.759Z,6.60
2023-01-04T06:19:38.421Z,6.53
2023-01-04T06:22:05.109Z,7.23
2023-01-04T06:24:31.774Z,6.27
2023-01-04T06:26:58.489Z,6.07
2023-01-04T06:29:25.044Z,5.70
2023-01-04T06:31:51.659Z,5.33
2023-01-04T06:34:18.246Z,6.07
2023-01-04T06:36:44.819Z,5.57
2023-01-04T06:39:11.494Z,5.83
2023-01-04T06:41:38.312Z,7.50
2023-01-04T06:44:04.975Z,6.10
2023-01-04T06:46:31.622Z,6.43
2023-01-04T06:48:58.271Z,6.23
2023-01-04T06:51:25.058Z,6.93
2023-01-04T06:53:51.662Z,5.90
2023-01-04T06:56:18.228Z,5.70
2023-01-04T06:58:44.819Z,6.60
2023-01-04T07:01:11.488Z,5.00
2023-01-04T07:03:38.177Z,5.80
2023-01-04T07:06:06.283Z,5.77
2023-01-04T07:08:33.707Z,5.77
2023-01-04T07:11:00.695Z,5.30
2023-01-04T07:13:27.302Z,5.70
2023-01-04T07:15:53.868Z,5.57
2023-01-04T07:18:20.576Z,5.50
2023-01-04T07:20:47.204Z,5.27
2023-01-04T07:23:13.814Z,5.83
2023-01-04T07:25:40.420Z,5.10
2023-01-04T07:28:07.096Z,4.83
2023-01-04T07:30:33.808Z,5.47
2023-01-04T07:33:00.420Z,5.57
2023-01-04T07:35:27.200Z,4.93
2023-01-04T07:37:58.295Z,5.23
2023-01-04T07:40:26.113Z,5.90
2023-01-04T07:42:59.567Z,5.13
2023-01-04T07:45:26.796Z,6.87
2023-01-04T07:47:53.528Z,5.90
2023-01-04T07:50:20.154Z,7.00
2023-01-04T07:52:46.769Z,8.27
2023-01-04T07:55:13.477Z,23.57
2023-01-04T07:57:40.047Z,15.87
2023-01-04T08:00:07.389Z,19.10
2023-01-04T08:02:38.928Z,17.00
2023-01-04T08:05:06.472Z,19.23
2023-01-04T08:07:33.195Z,31.07
2023-01-04T08:10:00.257Z,18.70
2023-01-04T08:12:26.933Z,6.70
2023-01-04T08:14:53.504Z,8.13
2023-01-04T08:17:20.064Z,5.70
2023-01-04T08:19:46.853Z,5.60
2023-01-04T08:22:14.012Z,6.03
2023-01-04T08:24:40.690Z,6.40
2023-01-04T08:27:08.345Z,6.27
2023-01-04T08:29:35.499Z,6.43
2023-01-04T08:32:02.371Z,6.53
2023-01-04T08:34:29.857Z,6.00
2023-01-04T08:36:56.665Z,7.07
2023-01-04T08:39:23.266Z,6.27
2023-01-04T08:42:00.459Z,7.50
2023-01-04T08:44:29.558Z,6.23
2023-01-04T08:46:56.307Z,7.60
2023-01-04T08:49:23.761Z,6.40
2023-01-04T08:51:50.606Z,6.00
2023-01-04T08:54:17.412Z,5.60
2023-01-04T08:56:44.410Z,6.83
2023-01-04T08:59:13.129Z,7.57
2023-01-04T09:01:40.927Z,6.10
2023-01-04T09:04:07.833Z,6.57
2023-01-04T09:06:34.567Z,5.37
2023-01-04T09:09:01.188Z,6.03
2023-01-04T09:11:28.384Z,5.27
2023-01-04T09:14:04.311Z,5.73
2023-01-04T09:16:33.350Z,6.53
2023-01-04T09:18:59.965Z,5.87
2023-01-04T09:21:26.621Z,5.73
2023-01-04T09:23:53.284Z,5.70
2023-01-04T09:26:22.334Z,6.80
2023-01-04T09:28:53.583Z,5.83
2023-01-04T09:31:22.687Z,5.67
2023-01-04T09:36:36.076Z,5.23
2023-01-04T09:39:04.922Z,5.03
2023-01-04T09:41:35.784Z,6.50
2023-01-04T09:44:05.957Z,5.13
2023-01-04T09:46:37.434Z,4.70
2023-01-04T09:49:11.259Z,5.20
2023-01-04T09:51:39.103Z,5.67
2023-01-04T09:54:15.425Z,4.97
2023-01-04T09:56:48.533Z,5.00
2023-01-04T09:59:17.023Z,5.80
2023-01-04T10:01:50.156Z,5.90
2023-01-04T10:04:25.561Z,5.07
2023-01-04T10:06:52.933Z,5.43
2023-01-04T10:09:19.984Z,5.30
2023-01-04T10:11:56.578Z,7.93
2023-01-04T10:14:48.511Z,7.83
2023-01-04T10:17:57.457Z,6.33
2023-01-04T10:23:59.048Z,6.90
2023-01-04T10:26:34.957Z,6.40
2023-01-04T10:29:25.142Z,6.87
2023-01-04T10:31:58.081Z,8.97
2023-01-04T10:34:33.733Z,10.07
2023-01-04T10:37:06.809Z,8.67
2023-01-04T10:39:36.088Z,7.03
2023-01-04T10:42:31.131Z,7.07
2023-01-04T10:45:27.342Z,6.03
2023-01-04T10:48:05.471Z,5.67
2023-01-04T10:50:59.831Z,5.60
2023-01-04T10:53:49.192Z,5.30
2023-01-04T10:56:27.372Z,4.30
2023-01-04T10:59:24.292Z,4.27
2023-01-04T11:01:55.868Z,4.60
2023-01-04T11:04:29.713Z,4.60
2023-01-04T11:06:59.657Z,4.57
2023-01-04T11:09:30.860Z,5.07
2023-01-04T11:11:57.907Z,5.50
2023-01-04T11:14:25.655Z,4.40
2023-01-04T11:16:56.893Z,4.70
2023-01-04T11:19:23.485Z,6.00
2023-01-04T11:21:57.090Z,5.03
2023-01-04T11:24:34.422Z,4.40
2023-01-04T11:27:13.489Z,4.70
2023-01-04T11:30:25.627Z,5.53
2023-01-04T11:32:55.962Z,4.20
2023-01-04T11:35:42.017Z,4.20
2023-01-04T11:38:19.519Z,4.60
2023-01-04T11:40:55.199Z,4.47
2023-01-04T11:43:22.875Z,4.37
2023-01-04T11:46:01.284Z,4.20
2023-01-04T11:48:33.111Z,4.13
2023-01-04T11:51:00.173Z,4.43
2023-01-04T11:53:28.710Z,4.63
2023-01-04T11:56:31.427Z,4.60
2023-01-04T11:59:24.833Z,5.53
2023-01-04T12:02:11.203Z,5.17
2023-01-04T12:04:38.017Z,5.90
2023-01-04T12:07:17.987Z,4.57
2023-01-04T12:09:44.601Z,4.40
2023-01-04T12:12:15.774Z,4.60
2023-01-04T12:14:48.044Z,4.20
2023-01-04T12:17:29.258Z,4.07
2023-01-04T12:19:57.226Z,4.17
2023-01-04T12:22:38.031Z,4.13
2023-01-04T12:25:09.348Z,3.67
2023-01-04T12:27:36.662Z,3.70
2023-01-04T12:30:06.071Z,4.23
2023-01-04T12:32:32.619Z,6.40
2023-01-04T12:34:59.216Z,6.27
2023-01-04T12:37:38.160Z,4.50
2023-01-04T12:40:43.113Z,4.20
2023-01-04T12:43:15.897Z,3.83
2023-01-04T12:45:46.419Z,3.53
2023-01-04T12:48:46.633Z,3.73
2023-01-04T12:51:33.393Z,3.73
2023-01-04T12:54:03.329Z,2.90
2023-01-04T12:57:07.825Z,3.23
2023-01-04T12:59:39.475Z,3.93
2023-01-04T13:02:33.872Z,3.00
2023-01-04T13:05:45.421Z,2.70
2023-01-04T13:07:55.073Z,2.20
2023-01-04T13:10:21.701Z,2.13
2023-01-04T13:13:03.588Z,4.00
2023-01-04T13:15:45.357Z,2.33
2023-01-04T13:18:35.086Z,2.10
2023-01-04T13:21:29.537Z,2.17
2023-01-04T13:23:58.524Z,4.30
2023-01-04T13:26:32.091Z,3.60
2023-01-04T13:29:19.651Z,3.00
2023-01-04T13:31:52.915Z,4.50
2023-01-04T13:34:24.386Z,2.60
2023-01-04T13:36:56.073Z,2.77
2023-01-04T13:39:22.979Z,2.90
2023-01-04T13:41:49.748Z,3.10
2023-01-04T13:47:37.032Z,1.97
2023-01-04T13:50:04.881Z,2.13
2023-01-04T13:52:59.968Z,2.23
2023-01-04T13:55:24.280Z,2.37
2023-01-04T13:57:56.335Z,3.60
2023-01-04T14:00:24.816Z,2.30
2023-01-04T14:03:14.970Z,2.27
2023-01-04T14:05:49.419Z,7.23
2023-01-04T14:08:26.810Z,3.10
2023-01-04T14:10:53.467Z,5.00
2023-01-04T14:13:20.737Z,4.80
2023-01-04T14:15:47.485Z,8.40
2023-01-04T14:18:28.695Z,15.90
2023-01-04T14:20:55.565Z,9.83
2023-01-04T14:23:38.690Z,7.03
2023-01-04T14:26:05.456Z,4.50
2023-01-04T14:28:41.839Z,4.07
2023-01-04T14:31:14.717Z,4.20
2023-01-04T14:33:46.662Z,4.00
2023-01-04T14:36:18.527Z,3.70
2023-01-04T14:39:06.371Z,3.70
2023-01-04T14:41:34.477Z,3.80
2023-01-04T14:44:00.972Z,4.23
2023-01-04T14:46:28.951Z,17.83
2023-01-04T14:48:55.620Z,8.80
2023-01-04T14:51:42.487Z,5.57
2023-01-04T14:54:11.815Z,6.77
2023-01-04T14:56:38.976Z,18.10
2023-01-04T14:59:05.796Z,17.17
2023-01-04T15:01:32.847Z,10.77
2023-01-04T15:04:00.134Z,34.50
2023-01-04T15:06:26.919Z,16.53
2023-01-04T15:08:53.672Z,10.97
2023-01-04T15:11:21.119Z,13.07
2023-01-04T15:13:47.965Z,12.77
2023-01-04T15:16:16.421Z,14.70
2023-01-04T15:18:46.262Z,13.57
2023-01-04T15:21:13.119Z,8.00
2023-01-04T15:23:40.336Z,7.13
2023-01-04T15:26:08.623Z,6.37
2023-01-04T15:28:35.599Z,6.70
2023-01-04T15:31:10.213Z,6.63
2023-01-04T15:33:37.392Z,6.63
2023-01-04T15:36:24.144Z,5.87
2023-01-04T15:38:55.117Z,6.23
2023-01-04T15:41:40.407Z,6.90
2023-01-04T15:44:09.800Z,6.40
2023-01-04T15:46:36.528Z,5.50
2023-01-04T15:49:03.179Z,5.60
2023-01-04T15:51:29.796Z,5.47
2023-01-04T15:53:56.710Z,4.93
2023-01-04T15:56:23.469Z,5.37
2023-01-04T15:58:54.750Z,5.53
2023-01-04T16:01:22.206Z,5.20
2023-01-04T16:03:53.403Z,5.77
2023-01-04T16:06:21.329Z,6.20
2023-01-04T16:08:49.648Z,6.00
2023-01-04T16:11:18.297Z,6.43
2023-01-04T16:13:45.803Z,7.23
2023-01-04T16:16:12.786Z,6.37
2023-01-04T16:18:39.480Z,6.80
2023-01-04T16:21:07.620Z,7.37
2023-01-04T16:23:35.406Z,6.80
2023-01-04T16:26:13.188Z,8.20
2023-01-04T16:28:40.620Z,8.30
2023-01-04T16:31:08.159Z,9.93
2023-01-04T16:33:35.841Z,9.50
2023-01-04T16:36:06.705Z,16.23
2023-01-04T16:38:38.117Z,26.83
2023-01-04T16:41:06.090Z,25.80
2023-01-04T16:43:32.838Z,19.53
2023-01-04T16:46:16.241Z,11.40
2023-01-04T16:48:44.043Z,7.97
2023-01-04T16:51:11.019Z,9.37
2023-01-04T16:53:38.057Z,12.10
2023-01-04T16:56:09.111Z,14.57
2023-01-04T16:58:36.083Z,18.83
2023-01-04T17:01:10.038Z,20.30
2023-01-04T17:03:37.223Z,17.10
2023-01-04T17:06:21.542Z,19.50
2023-01-04T17:08:50.117Z,19.83
2023-01-04T17:12:36.368Z,20.23
2023-01-04T17:14:24.885Z,17.90
2023-01-04T17:16:52.555Z,16.40
2023-01-04T17:19:19.349Z,15.67
2023-01-04T17:21:46.276Z,15.03
2023-01-04T17:24:13.121Z,12.37
2023-01-04T17:26:40.583Z,12.63
2023-01-04T17:29:07.466Z,13.03
2023-01-04T17:31:36.752Z,14.63
2023-01-04T17:34:03.734Z,16.20
2023-01-04T17:36:30.358Z,16.83
2023-01-04T17:38:59.321Z,13.97
2023-01-04T17:41:27.230Z,14.17
2023-01-04T17:43:59.917Z,13.03
2023-01-04T17:46:31.897Z,13.43
2023-01-04T17:49:31.826Z,10.33
2023-01-04T17:51:47.642Z,10.30
2023-01-04T17:54:14.252Z,10.33
2023-01-04T17:56:40.861Z,9.00
2023-01-04T17:59:07.575Z,9.80
2023-01-04T18:01:35.132Z,7.80
2023-01-04T18:04:05.440Z,7.57
2023-01-04T18:06:36.134Z,8.60
2023-01-04T18:09:06.355Z,7.17
2023-01-04T18:11:34.054Z,7.43
2023-01-04T18:14:05.773Z,7.67
2023-01-04T18:16:56.659Z,7.27
2023-01-04T18:19:28.624Z,8.53
2023-01-04T18:21:55.670Z,9.10
2023-01-04T18:24:39.020Z,8.57
2023-01-04T18:27:25.582Z,10.50
2023-01-04T18:29:54.191Z,12.60
2023-01-04T18:32:21.624Z,11.43
2023-01-04T18:34:48.319Z,9.57
2023-01-04T18:37:16.173Z,9.27
2023-01-04T18:39:43.059Z,9.07
2023-01-04T18:42:09.615Z,8.43
2023-01-04T18:44:38.668Z,9.60
2023-01-04T18:47:07.758Z,8.73
2023-01-04T18:49:34.303Z,8.77
2023-01-04T18:52:00.984Z,9.33
2023-01-04T18:54:27.573Z,9.03
2023-01-04T18:57:00.401Z,8.53
2023-01-04T18:59:29.139Z,8.67
2023-01-04T19:02:01.530Z,7.93
2023-01-04T19:04:30.394Z,8.93
2023-01-04T19:06:57.002Z,8.50
2023-01-04T19:09:23.681Z,8.83
2023-01-04T19:11:50.418Z,8.50
2023-01-04T19:14:17.261Z,8.50
2023-01-04T19:16:44.000Z,8.37
2023-01-04T19:19:11.077Z,8.57
2023-01-04T19:21:37.838Z,9.30
2023-01-04T19:24:04.624Z,8.10
2023-01-04T19:26:31.179Z,8.30
2023-01-04T19:28:57.763Z,7.00
2023-01-04T19:31:24.321Z,7.60
2023-01-04T19:33:50.900Z,7.20
2023-01-04T19:36:18.751Z,7.27
2023-01-04T19:38:45.845Z,7.10
2023-01-04T19:41:21.024Z,6.73
2023-01-04T19:43:48.383Z,6.70
2023-01-04T19:46:15.463Z,6.87
2023-01-04T19:48:42.892Z,6.70
2023-01-04T19:51:12.582Z,7.27
2023-01-04T19:53:39.587Z,7.10
2023-01-04T19:56:06.973Z,7.67
2023-01-04T19:58:33.899Z,7.77
2023-01-04T20:01:00.605Z,7.07
2023-01-04T20:03:27.278Z,7.27
2023-01-04T20:05:54.355Z,7.70
2023-01-04T20:08:21.422Z,7.13
2023-01-04T20:10:55.662Z,8.70
2023-01-04T20:13:22.386Z,7.60
2023-01-04T20:15:48.986Z,8.40
2023-01-04T20:18:15.588Z,7.60
2023-01-04T20:20:46.354Z,7.27
2023-01-04T20:23:13.841Z,7.40
2023-01-04T20:25:42.207Z,7.00
2023-01-04T20:28:08.827Z,7.20
2023-01-04T20:30:35.479Z,7.03
2023-01-04T20:33:02.251Z,7.43
2023-01-04T20:35:29.112Z,7.23
2023-01-04T20:37:57.666Z,8.17
2023-01-04T20:40:25.401Z,7.57
2023-01-04T20:43:10.743Z,8.33
2023-01-04T20:45:44.930Z,8.13
2023-01-04T20:48:12.031Z,8.07
2023-01-04T20:50:39.245Z,7.57
2023-01-04T20:53:06.460Z,7.83
2023-01-04T20:55:40.114Z,7.77
2023-01-04T20:58:08.974Z,7.83
2023-01-04T21:00:37.059Z,7.87
2023-01-04T21:03:05.376Z,7.90
2023-01-04T21:05:36.729Z,7.73
2023-01-04T21:08:03.476Z,7.70
2023-01-04T21:10:30.081Z,7.63
2023-01-04T21:12:59.013Z,7.93
2023-01-04T21:15:25.952Z,7.20
2023-01-04T21:17:52.564Z,7.60
2023-01-04T21:20:21.483Z,7.60
2023-01-04T21:22:48.143Z,9.63
2023-01-04T21:25:14.810Z,11.17
2023-01-04T21:27:41.371Z,9.60
2023-01-04T21:30:08.310Z,7.10
2023-01-04T21:32:34.857Z,9.03
2023-01-04T21:35:01.987Z,6.90
2023-01-04T21:37:29.407Z,6.77
2023-01-04T21:39:55.957Z,6.50
2023-01-04T21:42:22.586Z,6.93
2023-01-04T21:44:49.134Z,7.93
2023-01-04T21:47:15.841Z,5.80
2023-01-04T21:49:44.002Z,5.80
2023-01-04T21:52:11.140Z,6.90
2023-01-04T21:54:38.459Z,6.00
2023-01-04T21:57:08.080Z,5.97
2023-01-04T21:59:35.811Z,6.20
2023-01-04T22:02:02.455Z,6.90
2023-01-04T22:04:29.202Z,5.87
2023-01-04T22:06:55.783Z,5.83
2023-01-04T22:09:22.479Z,5.90
2023-01-04T22:11:50.157Z,6.67
2023-01-04T22:14:17.929Z,5.70
2023-01-04T22:16:44.570Z,7.63
2023-01-04T22:19:14.852Z,5.83
2023-01-04T22:21:42.444Z,5.97
2023-01-04T22:24:13.178Z,5.40
2023-01-04T22:26:40.917Z,5.70
2023-01-04T22:29:07.666Z,5.77
2023-01-04T22:31:34.466Z,4.90
2023-01-04T22:34:01.206Z,6.00
2023-01-04T22:36:27.800Z,5.60
2023-01-04T22:38:56.058Z,5.33
2023-01-04T22:41:25.100Z,6.30
2023-01-04T22:44:03.417Z,6.77
2023-01-04T22:46:31.524Z,4.60
2023-01-04T22:48:59.193Z,9.57
2023-01-04T22:51:29.087Z,11.60
2023-01-04T22:53:58.602Z,12.10
2023-01-04T22:56:26.111Z,6.70
2023-01-04T22:58:55.358Z,13.60
2023-01-04T23:01:36.582Z,6.83
2023-01-04T23:04:03.752Z,7.30
2023-01-04T23:06:31.856Z,6.10
2023-01-04T23:08:59.186Z,6.70
2023-01-04T23:11:27.721Z,6.53
2023-01-04T23:13:54.342Z,5.27
2023-01-04T23:16:26.235Z,6.33
2023-01-04T23:18:56.491Z,7.10
2023-01-04T23:21:23.160Z,9.60
2023-01-04T23:23:50.786Z,8.23
2023-01-04T23:26:19.870Z,9.07
2023-01-04T23:28:47.031Z,12.33
2023-01-04T23:31:16.173Z,10.90
2023-01-04T23:33:42.783Z,10.83
2023-01-04T23:36:11.660Z,12.57
2023-01-04T23:38:38.720Z,9.73
2023-01-04T23:41:05.942Z,8.53
2023-01-04T23:43:34.769Z,14.90
2023-01-04T23:46:07.847Z,11.70
2023-01-04T23:48:34.605Z,6.97
2023-01-04T23:51:01.185Z,6.57
2023-01-04T23:53:27.801Z,6.87
2023-01-04T23:55:56.784Z,7.00
2023-01-04T23:58:24.093Z,10.10
